sensor_id;sensor_type;location;lat;lon;timestamp;pressure;altitude;pressure_sealevel;temperature;humidity
5522;BME280;2783;48.730;8.006;2022-09-09T00:00:17;99686.28;;;18.85;92.21
5522;BME280;2783;48.730;8.006;2022-09-09T00:05:37;99680.88;;;18.85;92.53
5522;BME280;2783;48.730;8.006;2022-09-09T00:08:04;99677.13;;;18.88;91.61
5522;BME280;2783;48.730;8.006;2022-09-09T00:10:39;99677.13;;;18.88;91.77
5522;BME280;2783;48.730;8.006;2022-09-09T00:16:15;99680.66;;;18.88;92.62
5522;BME280;2783;48.730;8.006;2022-09-09T00:21:33;99684.34;;;18.87;92.70
5522;BME280;2783;48.730;8.006;2022-09-09T00:24:00;99687.25;;;18.84;93.48
5522;BME280;2783;48.730;8.006;2022-09-09T00:26:38;99695.34;;;18.84;93.42
5522;BME280;2783;48.730;8.006;2022-09-09T00:29:18;99671.84;;;18.74;94.18
5522;BME280;2783;48.730;8.006;2022-09-09T00:31:47;99699.63;;;18.87;94.46
5522;BME280;2783;48.730;8.006;2022-09-09T00:34:21;99707.06;;;18.83;93.82
5522;BME280;2783;48.730;8.006;2022-09-09T00:36:50;99706.97;;;18.85;93.16
5522;BME280;2783;48.730;8.006;2022-09-09T00:39:39;99714.94;;;18.86;93.51
5522;BME280;2783;48.730;8.006;2022-09-09T00:42:14;99714.31;;;18.83;94.83
5522;BME280;2783;48.730;8.006;2022-09-09T00:44:53;99732.66;;;18.78;95.06
5522;BME280;2783;48.730;8.006;2022-09-09T00:53:15;99754.06;;;18.67;97.67
5522;BME280;2783;48.730;8.006;2022-09-09T00:55:45;99749.88;;;18.63;98.71
5522;BME280;2783;48.730;8.006;2022-09-09T00:58:13;99752.25;;;18.55;100.00
5522;BME280;2783;48.730;8.006;2022-09-09T01:00:46;99760.09;;;18.58;100.00
5522;BME280;2783;48.730;8.006;2022-09-09T01:05:59;99762.25;;;18.53;100.00
5522;BME280;2783;48.730;8.006;2022-09-09T01:11:01;99735.34;;;18.38;100.00
5522;BME280;2783;48.730;8.006;2022-09-09T01:13:33;99726.94;;;18.30;100.00
5522;BME280;2783;48.730;8.006;2022-09-09T01:16:01;99714.69;;;18.26;100.00
5522;BME280;2783;48.730;8.006;2022-09-09T01:18:30;99706.06;;;18.21;100.00
5522;BME280;2783;48.730;8.006;2022-09-09T01:21:17;99705.41;;;18.18;100.00
5522;BME280;2783;48.730;8.006;2022-09-09T01:24:08;99712.06;;;18.12;100.00
5522;BME280;2783;48.730;8.006;2022-09-09T01:26:43;99708.69;;;17.96;100.00
5522;BME280;2783;48.730;8.006;2022-09-09T01:29:11;99720.44;;;17.95;100.00
5522;BME280;2783;48.730;8.006;2022-09-09T01:31:40;99700.88;;;17.79;100.00
5522;BME280;2783;48.730;8.006;2022-09-09T01:34:13;99709.94;;;17.91;100.00
5522;BME280;2783;48.730;8.006;2022-09-09T01:36:46;99691.09;;;17.78;100.00
5522;BME280;2783;48.730;8.006;2022-09-09T01:39:15;99700.75;;;17.81;100.00
5522;BME280;2783;48.730;8.006;2022-09-09T01:41:41;99691.50;;;17.72;100.00
5522;BME280;2783;48.730;8.006;2022-09-09T01:44:07;99683.69;;;17.55;100.00
5522;BME280;2783;48.730;8.006;2022-09-09T01:46:33;99719.06;;;17.76;100.00
5522;BME280;2783;48.730;8.006;2022-09-09T01:48:59;99704.19;;;17.70;100.00
5522;BME280;2783;48.730;8.006;2022-09-09T01:51:27;99698.59;;;17.73;100.00
5522;BME280;2783;48.730;8.006;2022-09-09T01:53:53;99665.84;;;17.54;100.00
5522;BME280;2783;48.730;8.006;2022-09-09T02:00:08;99691.97;;;17.52;100.00
5522;BME280;2783;48.730;8.006;2022-09-09T02:08:06;99692.72;;;17.54;100.00
5522;BME280;2783;48.730;8.006;2022-09-09T02:10:59;99660.34;;;17.56;100.00
5522;BME280;2783;48.730;8.006;2022-09-09T02:13:28;99663.88;;;17.56;100.00
5522;BME280;2783;48.730;8.006;2022-09-09T02:16:08;99664.84;;;17.55;100.00
5522;BME280;2783;48.730;8.006;2022-09-09T02:18:42;99669.00;;;17.47;100.00
5522;BME280;2783;48.730;8.006;2022-09-09T02:21:11;99686.59;;;17.52;100.00
5522;BME280;2783;48.730;8.006;2022-09-09T02:23:41;99663.91;;;17.42;100.00
5522;BME280;2783;48.730;8.006;2022-09-09T02:26:10;99670.75;;;17.48;100.00
5522;BME280;2783;48.730;8.006;2022-09-09T02:28:39;99667.38;;;17.44;100.00
5522;BME280;2783;48.730;8.006;2022-09-09T02:31:05;99666.97;;;17.50;100.00
5522;BME280;2783;48.730;8.006;2022-09-09T02:33:38;99661.50;;;17.52;100.00
5522;BME280;2783;48.730;8.006;2022-09-09T02:36:07;99674.63;;;17.56;100.00
5522;BME280;2783;48.730;8.006;2022-09-09T02:38:37;99669.69;;;17.50;100.00
5522;BME280;2783;48.730;8.006;2022-09-09T02:41:05;99670.81;;;17.46;100.00
5522;BME280;2783;48.730;8.006;2022-09-09T02:43:33;99680.63;;;17.47;100.00
5522;BME280;2783;48.730;8.006;2022-09-09T02:46:24;99685.81;;;17.50;100.00
5522;BME280;2783;48.730;8.006;2022-09-09T02:48:59;99686.38;;;17.55;100.00
5522;BME280;2783;48.730;8.006;2022-09-09T02:56:47;99692.31;;;17.60;100.00
5522;BME280;2783;48.730;8.006;2022-09-09T02:59:16;99690.38;;;17.62;100.00
5522;BME280;2783;48.730;8.006;2022-09-09T03:01:42;99682.88;;;17.67;100.00
5522;BME280;2783;48.730;8.006;2022-09-09T03:04:09;99679.63;;;17.62;100.00
5522;BME280;2783;48.730;8.006;2022-09-09T03:06:35;99675.06;;;17.50;100.00
5522;BME280;2783;48.730;8.006;2022-09-09T03:09:01;99669.69;;;17.50;100.00
5522;BME280;2783;48.730;8.006;2022-09-09T03:11:28;99680.88;;;17.57;100.00
5522;BME280;2783;48.730;8.006;2022-09-09T03:13:54;99680.88;;;17.57;100.00
5522;BME280;2783;48.730;8.006;2022-09-09T03:16:22;99669.69;;;17.50;100.00
5522;BME280;2783;48.730;8.006;2022-09-09T03:18:47;99662.28;;;17.40;100.00
5522;BME280;2783;48.730;8.006;2022-09-09T03:21:13;99672.56;;;17.47;100.00
5522;BME280;2783;48.730;8.006;2022-09-09T03:23:39;99676.75;;;17.51;100.00
5522;BME280;2783;48.730;8.006;2022-09-09T03:26:05;99660.16;;;17.45;100.00
5522;BME280;2783;48.730;8.006;2022-09-09T03:28:30;99673.44;;;17.48;100.00
5522;BME280;2783;48.730;8.006;2022-09-09T03:31:04;99679.56;;;17.50;100.00
5522;BME280;2783;48.730;8.006;2022-09-09T03:33:30;99648.47;;;17.32;100.00
5522;BME280;2783;48.730;8.006;2022-09-09T03:35:57;99684.28;;;17.46;100.00
5522;BME280;2783;48.730;8.006;2022-09-09T03:38:25;99662.69;;;17.34;100.00
5522;BME280;2783;48.730;8.006;2022-09-09T03:40:52;99682.56;;;17.45;100.00
5522;BME280;2783;48.730;8.006;2022-09-09T03:43:26;99668.63;;;17.39;100.00
5522;BME280;2783;48.730;8.006;2022-09-09T03:45:52;99659.69;;;17.38;100.00
5522;BME280;2783;48.730;8.006;2022-09-09T03:48:19;99664.72;;;17.30;100.00
5522;BME280;2783;48.730;8.006;2022-09-09T03:50:49;99669.25;;;17.30;100.00
5522;BME280;2783;48.730;8.006;2022-09-09T03:53:16;99684.19;;;17.34;100.00
5522;BME280;2783;48.730;8.006;2022-09-09T03:55:53;99680.84;;;17.30;100.00
5522;BME280;2783;48.730;8.006;2022-09-09T03:58:26;99673.38;;;17.21;100.00
5522;BME280;2783;48.730;8.006;2022-09-09T04:01:09;99684.81;;;17.25;100.00
5522;BME280;2783;48.730;8.006;2022-09-09T04:03:35;99679.91;;;17.17;100.00
5522;BME280;2783;48.730;8.006;2022-09-09T04:06:03;99678.97;;;17.18;100.00
5522;BME280;2783;48.730;8.006;2022-09-09T04:08:30;99673.75;;;17.15;100.00
5522;BME280;2783;48.730;8.006;2022-09-09T04:10:57;99673.41;;;17.07;100.00
5522;BME280;2783;48.730;8.006;2022-09-09T04:13:23;99684.72;;;17.12;100.00
5522;BME280;2783;48.730;8.006;2022-09-09T04:15:51;99688.75;;;17.05;100.00
5522;BME280;2783;48.730;8.006;2022-09-09T04:18:17;99681.28;;;16.96;100.00
5522;BME280;2783;48.730;8.006;2022-09-09T04:20:46;99693.66;;;16.98;100.00
5522;BME280;2783;48.730;8.006;2022-09-09T04:23:12;99688.38;;;16.97;100.00
5522;BME280;2783;48.730;8.006;2022-09-09T04:25:37;99694.91;;;17.07;100.00
5522;BME280;2783;48.730;8.006;2022-09-09T04:28:03;99688.22;;;17.00;100.00
5522;BME280;2783;48.730;8.006;2022-09-09T04:30:28;99655.97;;;16.86;100.00
5522;BME280;2783;48.730;8.006;2022-09-09T04:32:54;99680.72;;;16.91;100.00
5522;BME280;2783;48.730;8.006;2022-09-09T04:35:19;99668.63;;;16.84;100.00
5522;BME280;2783;48.730;8.006;2022-09-09T04:37:45;99680.06;;;16.87;100.00
5522;BME280;2783;48.730;8.006;2022-09-09T04:40:11;99692.25;;;16.93;100.00
5522;BME280;2783;48.730;8.006;2022-09-09T04:42:37;99677.88;;;16.80;100.00
5522;BME280;2783;48.730;8.006;2022-09-09T04:45:05;99700.09;;;16.96;100.00
5522;BME280;2783;48.730;8.006;2022-09-09T04:47:31;99709.13;;;16.95;100.00
5522;BME280;2783;48.730;8.006;2022-09-09T04:49:57;99713.91;;;17.04;100.00
5522;BME280;2783;48.730;8.006;2022-09-09T04:52:22;99703.16;;;17.04;100.00
5522;BME280;2783;48.730;8.006;2022-09-09T04:54:47;99706.16;;;16.99;100.00
5522;BME280;2783;48.730;8.006;2022-09-09T04:57:13;99707.97;;;16.99;100.00
5522;BME280;2783;48.730;8.006;2022-09-09T04:59:38;99705.69;;;16.93;100.00
5522;BME280;2783;48.730;8.006;2022-09-09T05:02:05;99708.94;;;16.98;100.00
5522;BME280;2783;48.730;8.006;2022-09-09T05:04:31;99720.06;;;16.92;100.00
5522;BME280;2783;48.730;8.006;2022-09-09T05:06:56;99699.16;;;16.83;100.00
5522;BME280;2783;48.730;8.006;2022-09-09T05:09:22;99708.94;;;16.84;100.00
5522;BME280;2783;48.730;8.006;2022-09-09T05:11:47;99715.28;;;16.83;100.00
5522;BME280;2783;48.730;8.006;2022-09-09T05:14:13;99715.56;;;16.78;100.00
5522;BME280;2783;48.730;8.006;2022-09-09T05:16:39;99697.22;;;16.71;100.00
5522;BME280;2783;48.730;8.006;2022-09-09T05:19:05;99711.81;;;16.81;100.00
5522;BME280;2783;48.730;8.006;2022-09-09T05:21:31;99684.78;;;16.70;100.00
5522;BME280;2783;48.730;8.006;2022-09-09T05:23:57;99707.13;;;16.84;100.00
5522;BME280;2783;48.730;8.006;2022-09-09T05:26:23;99701.75;;;16.84;100.00
5522;BME280;2783;48.730;8.006;2022-09-09T05:28:49;99720.06;;;16.92;100.00
5522;BME280;2783;48.730;8.006;2022-09-09T05:31:16;99724.66;;;17.04;100.00
5522;BME280;2783;48.730;8.006;2022-09-09T05:33:43;99723.63;;;17.06;100.00
5522;BME280;2783;48.730;8.006;2022-09-09T05:36:16;99708.34;;;17.07;100.00
5522;BME280;2783;48.730;8.006;2022-09-09T05:38:43;99719.34;;;17.17;100.00
5522;BME280;2783;48.730;8.006;2022-09-09T05:41:10;99730.78;;;17.34;100.00
5522;BME280;2783;48.730;8.006;2022-09-09T05:43:40;99715.13;;;17.27;100.00
5522;BME280;2783;48.730;8.006;2022-09-09T05:46:11;99732.69;;;17.46;100.00
5522;BME280;2783;48.730;8.006;2022-09-09T05:48:41;99738.06;;;17.46;100.00
5522;BME280;2783;48.730;8.006;2022-09-09T05:51:09;99732.50;;;17.49;100.00
5522;BME280;2783;48.730;8.006;2022-09-09T05:53:38;99732.00;;;17.57;100.00
5522;BME280;2783;48.730;8.006;2022-09-09T05:56:12;99732.09;;;17.55;100.00
5522;BME280;2783;48.730;8.006;2022-09-09T05:58:40;99739.56;;;17.64;100.00
5522;BME280;2783;48.730;8.006;2022-09-09T06:01:14;99738.38;;;17.68;100.00
5522;BME280;2783;48.730;8.006;2022-09-09T06:03:41;99732.81;;;17.71;100.00
5522;BME280;2783;48.730;8.006;2022-09-09T06:06:11;99743.75;;;17.82;100.00
5522;BME280;2783;48.730;8.006;2022-09-09T06:08:39;99750.72;;;17.85;100.00
5522;BME280;2783;48.730;8.006;2022-09-09T06:11:27;99739.97;;;17.85;100.00
5522;BME280;2783;48.730;8.006;2022-09-09T06:13:56;99733.44;;;17.89;100.00
5522;BME280;2783;48.730;8.006;2022-09-09T06:16:24;99745.00;;;18.03;100.00
5522;BME280;2783;48.730;8.006;2022-09-09T06:18:51;99730.78;;;18.01;100.00
5522;BME280;2783;48.730;8.006;2022-09-09T06:21:28;99742.22;;;18.17;100.00
5522;BME280;2783;48.730;8.006;2022-09-09T06:23:56;99735.66;;;18.21;100.00
5522;BME280;2783;48.730;8.006;2022-09-09T06:26:23;99745.69;;;18.32;100.00
5522;BME280;2783;48.730;8.006;2022-09-09T06:28:51;99728.59;;;18.33;100.00
5522;BME280;2783;48.730;8.006;2022-09-09T06:31:20;99735.00;;;18.45;100.00
5522;BME280;2783;48.730;8.006;2022-09-09T06:33:47;99723.25;;;18.46;100.00
5522;BME280;2783;48.730;8.006;2022-09-09T06:36:28;99729.38;;;18.48;100.00
5522;BME280;2783;48.730;8.006;2022-09-09T06:38:54;99720.53;;;18.46;100.00
5522;BME280;2783;48.730;8.006;2022-09-09T06:41:22;99742.13;;;18.58;100.00
5522;BME280;2783;48.730;8.006;2022-09-09T06:43:47;99739.31;;;18.60;100.00
5522;BME280;2783;48.730;8.006;2022-09-09T06:46:18;99699.31;;;18.41;99.99
5522;BME280;2783;48.730;8.006;2022-09-09T06:48:45;99745.44;;;18.87;99.22
5522;BME280;2783;48.730;8.006;2022-09-09T06:51:11;99739.81;;;19.15;98.61
5522;BME280;2783;48.730;8.006;2022-09-09T06:53:39;99742.50;;;19.40;96.92
5522;BME280;2783;48.730;8.006;2022-09-09T06:56:20;99740.97;;;19.48;95.63
5522;BME280;2783;48.730;8.006;2022-09-09T06:58:49;99732.13;;;19.46;94.89
5522;BME280;2783;48.730;8.006;2022-09-09T07:01:17;99737.06;;;19.52;94.41
5522;BME280;2783;48.730;8.006;2022-09-09T07:03:46;99734.94;;;19.45;94.01
5522;BME280;2783;48.730;8.006;2022-09-09T07:06:22;99742.91;;;19.46;92.94
5522;BME280;2783;48.730;8.006;2022-09-09T07:08:58;99741.25;;;19.93;94.91
5522;BME280;2783;48.730;8.006;2022-09-09T07:11:29;99756.59;;;20.50;92.14
5522;BME280;2783;48.730;8.006;2022-09-09T07:13:57;99759.44;;;21.61;85.70
5522;BME280;2783;48.730;8.006;2022-09-09T07:16:23;99740.72;;;21.47;81.24
5522;BME280;2783;48.730;8.006;2022-09-09T07:18:50;99735.81;;;21.19;81.75
5522;BME280;2783;48.730;8.006;2022-09-09T07:21:17;99747.41;;;21.10;83.30
5522;BME280;2783;48.730;8.006;2022-09-09T07:23:43;99754.13;;;21.48;79.80
5522;BME280;2783;48.730;8.006;2022-09-09T07:26:14;99747.22;;;22.20;78.93
5522;BME280;2783;48.730;8.006;2022-09-09T07:28:40;99739.19;;;23.32;73.69
5522;BME280;2783;48.730;8.006;2022-09-09T07:31:07;99739.09;;;24.31;69.33
5522;BME280;2783;48.730;8.006;2022-09-09T07:33:39;99742.66;;;24.22;66.79
5522;BME280;2783;48.730;8.006;2022-09-09T07:38:44;99755.56;;;24.39;67.54
5522;BME280;2783;48.730;8.006;2022-09-09T07:41:13;99758.28;;;24.20;66.48
5522;BME280;2783;48.730;8.006;2022-09-09T07:43:40;99762.59;;;23.33;68.41
5522;BME280;2783;48.730;8.006;2022-09-09T07:46:09;99772.03;;;22.88;70.84
5522;BME280;2783;48.730;8.006;2022-09-09T07:48:35;99778.63;;;22.54;73.09
5522;BME280;2783;48.730;8.006;2022-09-09T07:51:06;99779.91;;;22.39;74.96
5522;BME280;2783;48.730;8.006;2022-09-09T07:53:33;99759.00;;;21.98;75.04
5522;BME280;2783;48.730;8.006;2022-09-09T07:56:07;99769.25;;;21.73;76.85
5522;BME280;2783;48.730;8.006;2022-09-09T07:58:35;99776.63;;;21.60;77.93
5522;BME280;2783;48.730;8.006;2022-09-09T08:01:09;99764.59;;;21.42;79.24
5522;BME280;2783;48.730;8.006;2022-09-09T08:03:35;99776.69;;;21.27;81.15
5522;BME280;2783;48.730;8.006;2022-09-09T08:06:03;99782.81;;;21.18;82.68
5522;BME280;2783;48.730;8.006;2022-09-09T08:08:29;99771.91;;;20.95;83.82
5522;BME280;2783;48.730;8.006;2022-09-09T08:11:02;99776.38;;;20.97;84.57
5522;BME280;2783;48.730;8.006;2022-09-09T08:13:27;99786.69;;;20.91;86.27
5522;BME280;2783;48.730;8.006;2022-09-09T08:15:53;99788.41;;;20.92;87.18
5522;BME280;2783;48.730;8.006;2022-09-09T08:18:18;99773.28;;;20.90;87.70
5522;BME280;2783;48.730;8.006;2022-09-09T08:20:43;99779.06;;;20.97;86.59
5522;BME280;2783;48.730;8.006;2022-09-09T08:23:09;99797.78;;;21.00;86.10
5522;BME280;2783;48.730;8.006;2022-09-09T08:25:34;99791.22;;;20.91;86.43
5522;BME280;2783;48.730;8.006;2022-09-09T08:28:00;99788.75;;;20.88;86.74
5522;BME280;2783;48.730;8.006;2022-09-09T08:30:25;99789.00;;;20.85;87.98
5522;BME280;2783;48.730;8.006;2022-09-09T08:32:51;99801.16;;;20.90;88.45
5522;BME280;2783;48.730;8.006;2022-09-09T08:35:17;99792.09;;;20.91;88.08
5522;BME280;2783;48.730;8.006;2022-09-09T08:37:42;99801.06;;;20.92;87.79
5522;BME280;2783;48.730;8.006;2022-09-09T08:40:18;99799.50;;;21.01;88.21
5522;BME280;2783;48.730;8.006;2022-09-09T08:42:51;99802.59;;;21.07;87.06
5522;BME280;2783;48.730;8.006;2022-09-09T08:45:27;99779.84;;;21.10;86.86
5522;BME280;2783;48.730;8.006;2022-09-09T08:47:57;99791.91;;;21.28;87.63
5522;BME280;2783;48.730;8.006;2022-09-09T08:50:30;99788.59;;;21.35;87.18
5522;BME280;2783;48.730;8.006;2022-09-09T08:55:52;99785.53;;;21.51;85.72
5522;BME280;2783;48.730;8.006;2022-09-09T08:58:23;99792.41;;;21.44;85.09
5522;BME280;2783;48.730;8.006;2022-09-09T09:00:54;99795.72;;;21.58;87.24
5522;BME280;2783;48.730;8.006;2022-09-09T09:06:31;99796.53;;;22.03;85.37
5522;BME280;2783;48.730;8.006;2022-09-09T09:11:59;99783.00;;;22.03;82.43
5522;BME280;2783;48.730;8.006;2022-09-09T09:14:29;99796.53;;;22.14;82.99
5522;BME280;2783;48.730;8.006;2022-09-09T09:17:04;99797.00;;;22.08;83.83
5522;BME280;2783;48.730;8.006;2022-09-09T09:19:33;99799.25;;;22.03;82.59
5522;BME280;2783;48.730;8.006;2022-09-09T09:22:18;99801.25;;;21.90;81.83
5522;BME280;2783;48.730;8.006;2022-09-09T09:27:35;99787.59;;;21.80;81.86
5522;BME280;2783;48.730;8.006;2022-09-09T09:30:12;99798.44;;;21.80;81.59
5522;BME280;2783;48.730;8.006;2022-09-09T09:32:42;99798.03;;;21.74;83.08
5522;BME280;2783;48.730;8.006;2022-09-09T09:35:13;99793.91;;;21.81;82.10
5522;BME280;2783;48.730;8.006;2022-09-09T09:37:40;99795.97;;;21.88;81.07
5522;BME280;2783;48.730;8.006;2022-09-09T09:40:15;99797.44;;;21.92;80.96
5522;BME280;2783;48.730;8.006;2022-09-09T09:42:49;99799.53;;;21.89;78.75
5522;BME280;2783;48.730;8.006;2022-09-09T09:45:33;99809.47;;;22.10;78.46
5522;BME280;2783;48.730;8.006;2022-09-09T09:48:09;99805.28;;;22.38;75.90
5522;BME280;2783;48.730;8.006;2022-09-09T09:50:35;99783.41;;;22.62;75.02
5522;BME280;2783;48.730;8.006;2022-09-09T09:53:06;99783.94;;;22.97;72.72
5522;BME280;2783;48.730;8.006;2022-09-09T09:55:59;99787.47;;;23.38;69.86
5522;BME280;2783;48.730;8.006;2022-09-09T09:58:26;99786.28;;;23.31;68.18
5522;BME280;2783;48.730;8.006;2022-09-09T10:00:53;99780.50;;;23.25;68.42
5522;BME280;2783;48.730;8.006;2022-09-09T10:03:30;99793.19;;;23.35;68.28
5522;BME280;2783;48.730;8.006;2022-09-09T10:05:56;99787.75;;;23.66;68.68
5522;BME280;2783;48.730;8.006;2022-09-09T10:08:26;99779.31;;;24.18;66.28
5522;BME280;2783;48.730;8.006;2022-09-09T10:19:30;99791.53;;;23.84;63.71
5522;BME280;2783;48.730;8.006;2022-09-09T10:22:07;99783.31;;;23.74;66.47
5522;BME280;2783;48.730;8.006;2022-09-09T10:32:36;99771.63;;;25.26;63.23
5522;BME280;2783;48.730;8.006;2022-09-09T10:42:36;99767.09;;;28.30;51.37
5522;BME280;2783;48.730;8.006;2022-09-09T10:45:13;99763.03;;;28.51;48.77
5522;BME280;2783;48.730;8.006;2022-09-09T10:50:45;99762.56;;;27.04;49.61
5522;BME280;2783;48.730;8.006;2022-09-09T10:53:35;99770.09;;;26.50;53.08
5522;BME280;2783;48.730;8.006;2022-09-09T10:56:07;99750.53;;;26.19;55.43
5522;BME280;2783;48.730;8.006;2022-09-09T10:58:40;99767.25;;;26.07;58.24
5522;BME280;2783;48.730;8.006;2022-09-09T11:01:43;99766.03;;;25.28;59.33
5522;BME280;2783;48.730;8.006;2022-09-09T11:04:22;99762.72;;;24.59;59.83
5522;BME280;2783;48.730;8.006;2022-09-09T11:06:53;99751.69;;;24.22;61.17
5522;BME280;2783;48.730;8.006;2022-09-09T11:09:26;99764.16;;;24.44;61.23
5522;BME280;2783;48.730;8.006;2022-09-09T11:11:58;99754.00;;;24.84;61.38
5522;BME280;2783;48.730;8.006;2022-09-09T11:14:43;99754.41;;;24.32;60.76
5522;BME280;2783;48.730;8.006;2022-09-09T11:17:16;99757.56;;;24.18;62.34
5522;BME280;2783;48.730;8.006;2022-09-09T11:19:44;99748.28;;;24.30;63.55
5522;BME280;2783;48.730;8.006;2022-09-09T11:25:24;99740.25;;;24.38;61.70
5522;BME280;2783;48.730;8.006;2022-09-09T11:38:47;99731.41;;;23.68;62.75
5522;BME280;2783;48.730;8.006;2022-09-09T11:41:19;99727.28;;;23.73;61.82
5522;BME280;2783;48.730;8.006;2022-09-09T11:43:49;99724.72;;;23.91;62.10
5522;BME280;2783;48.730;8.006;2022-09-09T11:46:32;99720.63;;;24.06;61.09
5522;BME280;2783;48.730;8.006;2022-09-09T11:49:02;99712.69;;;24.98;60.58
5522;BME280;2783;48.730;8.006;2022-09-09T11:51:30;99716.56;;;25.86;54.92
5522;BME280;2783;48.730;8.006;2022-09-09T11:56:31;99716.69;;;25.94;50.18
5522;BME280;2783;48.730;8.006;2022-09-09T11:59:05;99703.06;;;26.47;48.60
5522;BME280;2783;48.730;8.006;2022-09-09T12:01:43;99701.19;;;26.48;49.99
5522;BME280;2783;48.730;8.006;2022-09-09T12:06:46;99731.44;;;25.01;51.58
5522;BME280;2783;48.730;8.006;2022-09-09T12:12:22;99717.56;;;24.95;65.13
5522;BME280;2783;48.730;8.006;2022-09-09T12:15:01;99718.16;;;25.62;63.96
5522;BME280;2783;48.730;8.006;2022-09-09T12:17:31;99722.09;;;26.22;64.93
5522;BME280;2783;48.730;8.006;2022-09-09T12:22:54;99715.94;;;26.02;59.22
5522;BME280;2783;48.730;8.006;2022-09-09T12:28:25;99715.25;;;25.73;59.89
5522;BME280;2783;48.730;8.006;2022-09-09T12:33:38;99709.97;;;26.77;54.43
5522;BME280;2783;48.730;8.006;2022-09-09T12:36:13;99704.75;;;27.17;51.55
5522;BME280;2783;48.730;8.006;2022-09-09T12:38:41;99702.13;;;27.67;50.51
5522;BME280;2783;48.730;8.006;2022-09-09T12:41:22;99692.50;;;28.12;50.25
5522;BME280;2783;48.730;8.006;2022-09-09T12:43:48;99688.59;;;28.39;48.25
5522;BME280;2783;48.730;8.006;2022-09-09T12:46:24;99700.41;;;28.23;47.94
5522;BME280;2783;48.730;8.006;2022-09-09T12:48:55;99695.59;;;27.60;46.18
5522;BME280;2783;48.730;8.006;2022-09-09T12:53:51;99685.06;;;27.31;48.71
5522;BME280;2783;48.730;8.006;2022-09-09T12:56:22;99685.31;;;26.86;48.40
5522;BME280;2783;48.730;8.006;2022-09-09T12:58:50;99685.13;;;26.45;48.41
5522;BME280;2783;48.730;8.006;2022-09-09T13:01:31;99685.47;;;26.07;49.70
5522;BME280;2783;48.730;8.006;2022-09-09T13:03:59;99684.66;;;25.79;50.00
5522;BME280;2783;48.730;8.006;2022-09-09T13:06:27;99693.19;;;25.66;50.05
5522;BME280;2783;48.730;8.006;2022-09-09T13:08:54;99689.59;;;25.48;50.25
5522;BME280;2783;48.730;8.006;2022-09-09T13:11:40;99672.72;;;25.26;49.45
5522;BME280;2783;48.730;8.006;2022-09-09T13:14:17;99692.91;;;24.96;50.09
5522;BME280;2783;48.730;8.006;2022-09-09T13:16:55;99687.28;;;24.71;50.90
5522;BME280;2783;48.730;8.006;2022-09-09T13:19:21;99683.63;;;24.99;52.10
5522;BME280;2783;48.730;8.006;2022-09-09T13:21:47;99675.19;;;25.56;50.13
5522;BME280;2783;48.730;8.006;2022-09-09T13:24:42;99674.28;;;25.82;48.72
5522;BME280;2783;48.730;8.006;2022-09-09T13:27:26;99675.63;;;26.31;47.03
5522;BME280;2783;48.730;8.006;2022-09-09T13:29:53;99660.63;;;26.27;47.73
5522;BME280;2783;48.730;8.006;2022-09-09T13:32:23;99654.06;;;26.20;47.59
5522;BME280;2783;48.730;8.006;2022-09-09T13:34:57;99671.06;;;26.57;45.40
5522;BME280;2783;48.730;8.006;2022-09-09T13:37:36;99675.44;;;26.68;43.58
5522;BME280;2783;48.730;8.006;2022-09-09T13:40:04;99682.94;;;26.66;43.36
5522;BME280;2783;48.730;8.006;2022-09-09T13:42:32;99680.81;;;26.60;43.76
5522;BME280;2783;48.730;8.006;2022-09-09T13:45:00;99684.34;;;26.70;43.06
5522;BME280;2783;48.730;8.006;2022-09-09T13:49:54;99664.28;;;26.61;43.67
5522;BME280;2783;48.730;8.006;2022-09-09T13:52:20;99659.00;;;26.60;43.57
5522;BME280;2783;48.730;8.006;2022-09-09T13:54:50;99669.28;;;26.66;43.46
5522;BME280;2783;48.730;8.006;2022-09-09T13:59:48;99665.28;;;26.78;45.58
5522;BME280;2783;48.730;8.006;2022-09-09T14:02:15;99640.34;;;26.30;44.27
5522;BME280;2783;48.730;8.006;2022-09-09T14:04:41;99673.97;;;25.85;43.72
5522;BME280;2783;48.730;8.006;2022-09-09T14:07:11;99665.41;;;25.36;45.97
5522;BME280;2783;48.730;8.006;2022-09-09T14:09:38;99669.91;;;24.91;46.34
5522;BME280;2783;48.730;8.006;2022-09-09T14:12:04;99670.63;;;24.83;46.74
5522;BME280;2783;48.730;8.006;2022-09-09T14:14:30;99668.91;;;24.82;47.58
5522;BME280;2783;48.730;8.006;2022-09-09T14:16:55;99665.47;;;24.80;48.34
5522;BME280;2783;48.730;8.006;2022-09-09T14:19:20;99664.38;;;24.54;48.26
5522;BME280;2783;48.730;8.006;2022-09-09T14:21:46;99645.50;;;24.43;49.30
5522;BME280;2783;48.730;8.006;2022-09-09T14:24:11;99656.81;;;24.48;50.56
5522;BME280;2783;48.730;8.006;2022-09-09T14:26:37;99659.69;;;24.37;49.63
5522;BME280;2783;48.730;8.006;2022-09-09T14:29:03;99665.56;;;24.23;51.74
5522;BME280;2783;48.730;8.006;2022-09-09T14:31:28;99669.13;;;24.14;52.58
5522;BME280;2783;48.730;8.006;2022-09-09T14:33:54;99668.09;;;23.96;54.86
5522;BME280;2783;48.730;8.006;2022-09-09T14:36:20;99673.53;;;23.67;59.74
5522;BME280;2783;48.730;8.006;2022-09-09T14:38:46;99680.34;;;23.42;60.50
5522;BME280;2783;48.730;8.006;2022-09-09T14:41:13;99722.91;;;23.12;63.86
5522;BME280;2783;48.730;8.006;2022-09-09T14:43:41;99725.06;;;22.67;61.28
5522;BME280;2783;48.730;8.006;2022-09-09T14:46:08;99717.03;;;22.25;65.06
5522;BME280;2783;48.730;8.006;2022-09-09T14:48:35;99717.81;;;21.84;65.21
5522;BME280;2783;48.730;8.006;2022-09-09T14:51:07;99723.50;;;21.59;63.05
5522;BME280;2783;48.730;8.006;2022-09-09T14:53:33;99718.72;;;21.51;64.20
5522;BME280;2783;48.730;8.006;2022-09-09T14:56:11;99697.72;;;21.22;60.37
5522;BME280;2783;48.730;8.006;2022-09-09T14:58:37;99726.84;;;21.29;60.86
5522;BME280;2783;48.730;8.006;2022-09-09T15:01:11;99723.03;;;21.32;61.21
5522;BME280;2783;48.730;8.006;2022-09-09T15:03:38;99727.13;;;21.26;62.02
5522;BME280;2783;48.730;8.006;2022-09-09T15:06:08;99722.78;;;21.24;63.48
5522;BME280;2783;48.730;8.006;2022-09-09T15:08:39;99722.31;;;21.30;64.29
5522;BME280;2783;48.730;8.006;2022-09-09T15:11:06;99724.63;;;21.34;64.33
5522;BME280;2783;48.730;8.006;2022-09-09T15:13:36;99713.78;;;21.56;65.77
5522;BME280;2783;48.730;8.006;2022-09-09T15:16:18;99718.91;;;21.81;66.99
5522;BME280;2783;48.730;8.006;2022-09-09T15:18:45;99709.50;;;21.96;65.55
5522;BME280;2783;48.730;8.006;2022-09-09T15:21:16;99726.09;;;22.14;64.56
5522;BME280;2783;48.730;8.006;2022-09-09T15:23:42;99724.06;;;22.16;64.48
5522;BME280;2783;48.730;8.006;2022-09-09T15:26:08;99722.69;;;21.90;64.48